Nador, Morocco

3:50 PM WEST on September 22, 2014 (GMT +0100)
Arwi | Change Station
CLOSE
Current Station
Airport
Location: ARWI,
Elevation: 574 ft
Nearby Weather Stations

Elev 574 ft 34.99 °N, 3.03 °W | Updated 1 hour ago

Rain Showers
Thunderstorm Showers Rain
66 °F
Feels Like 66 °F
N
22
Wind Variable Wind from SSE

Today
High -- | Low -- °F
--% Chance of Precip.
Yesterday
High -- | Low -- °F
Precip. -- in
6:59 AM 7:09 PM
Waning Crescent, 3% visible
Pressure 30.01 in
Visibility 3.7 miles
Clouds Few 2300 ft
Mostly Cloudy 6000 ft
Dew Point 57 °F
Humidity 73%
Rainfall 0.00 in
Snow Depth Not available.
UV 5 out of 12
Pollen Not available.
Air Quality Not available.
Flu Activity Not available.
METAR GMMW 221300Z 15019KT 110V170 6000 TS SHRA FEW023TCU BKN060CB 19/14 Q1016

More Conditions Fewer Conditions

Pressure 30.01 in
Visibility 3.7 miles
Clouds Few 2300 ft
Mostly Cloudy 6000 ft
Dew Point 57 °F
Humidity 73%
Rainfall 0.00 in
Snow Depth Not available.
UV 5 out of 12
Pollen Not available.
Air Quality Not available.
Flu Activity Not available.
METAR GMMW 221300Z 15019KT 110V170 6000 TS SHRA FEW023TCU BKN060CB 19/14 Q1016

More Conditions Fewer Conditions

10-Day Weather Forecast

Almanac

Astronomy

Sep. 22, 2014 Rise Set
Actual Time 6:59 AM WEST 7:09 PM WEST
Civil Twilight 6:34 AM WEST 7:34 PM WEST
Nautical Twilight 6:05 AM WEST 8:03 PM WEST
Astronomical Twilight 5:35 AM WEST 8:33 PM WEST
Moon 5:18 AM WEST 6:07 PM WEST
Length of Visible Light 12h 59m
Length of Day
12h 09m
Tomorrow will be 2m 11s shorter.
Waning Crescent, 3% of the Moon is Illuminated
Today
Waning Crescent
Sep 24
New
Oct 1
First Quarter
Oct 8
Full
Oct 15
Last Quarter

Today's Extremes

Country Highs Country Lows

Community

WunderPhotos

Upload Photos

1,755,459 photos uploaded!

WunderBlogs® & News

Nearby

Snow Depth

Not available.

Earthquake Activity

City Distance Mag. Time & Date
No recent earthquake activity has been reported nearby.
Minimum magnitude displayed is 2.5.

Coastal Water Temperatures

Place Temperature
No Stations Reporting

Nearby Weather Stations